createdAt,value
2023-05-18T00:00:06.123Z,23.10
2023-05-18T00:01:06.126Z,23.10
2023-05-18T00:02:06.214Z,23.10
2023-05-18T00:03:06.272Z,23.11
2023-05-18T00:04:06.327Z,23.11
2023-05-18T00:05:06.291Z,23.11
2023-05-18T00:06:06.312Z,23.11
2023-05-18T00:07:06.379Z,23.11
2023-05-18T00:08:06.348Z,23.11
2023-05-18T00:09:06.393Z,23.10
2023-05-18T00:10:06.413Z,23.10
2023-05-18T00:11:06.406Z,23.10
2023-05-18T00:12:06.423Z,23.10
2023-05-18T00:13:06.421Z,23.09
2023-05-18T00:14:06.436Z,23.10
2023-05-18T00:15:06.507Z,23.10
2023-05-18T00:16:06.573Z,23.09
2023-05-18T00:17:06.511Z,23.09
2023-05-18T00:18:06.564Z,23.09
2023-05-18T00:19:06.607Z,23.09
2023-05-18T00:20:06.613Z,23.09
2023-05-18T00:21:06.598Z,23.10
2023-05-18T00:22:06.596Z,23.08
2023-05-18T00:23:06.624Z,23.09
2023-05-18T00:24:06.663Z,23.09
2023-05-18T00:25:06.651Z,23.09
2023-05-18T00:26:06.683Z,23.09
2023-05-18T00:27:06.700Z,23.08
2023-05-18T00:28:06.697Z,23.09
2023-05-18T00:29:06.738Z,23.09
2023-05-18T00:30:06.745Z,23.08
2023-05-18T00:31:06.789Z,23.09
2023-05-18T00:32:06.811Z,23.09
2023-05-18T00:33:06.870Z,23.09
2023-05-18T00:34:06.826Z,23.08
2023-05-18T00:35:06.879Z,23.07
2023-05-18T00:36:06.892Z,23.07
2023-05-18T00:37:06.897Z,23.07
2023-05-18T00:38:06.919Z,23.08
2023-05-18T00:39:06.937Z,23.08
2023-05-18T00:40:07.032Z,23.08
2023-05-18T00:41:07.005Z,23.07
2023-05-18T00:42:06.988Z,23.08
2023-05-18T00:43:07.132Z,23.07
2023-05-18T00:44:07.061Z,23.07
2023-05-18T00:45:07.066Z,23.07
2023-05-18T00:46:07.131Z,23.07
2023-05-18T00:47:07.116Z,23.07
2023-05-18T00:48:07.323Z,23.07
2023-05-18T00:49:07.134Z,23.07
2023-05-18T00:50:07.132Z,23.06
2023-05-18T00:51:07.195Z,23.07
2023-05-18T00:52:07.178Z,23.07
2023-05-18T00:53:07.199Z,23.07
2023-05-18T00:54:07.214Z,23.07
2023-05-18T00:55:07.242Z,23.07
2023-05-18T00:56:07.259Z,23.06
2023-05-18T00:57:07.280Z,23.06
2023-05-18T00:58:07.294Z,23.06
2023-05-18T00:59:07.350Z,23.05
2023-05-18T01:00:07.360Z,23.05
2023-05-18T01:01:07.414Z,23.05
2023-05-18T01:02:07.422Z,23.05
2023-05-18T01:03:07.567Z,23.05
2023-05-18T01:04:07.387Z,23.05
2023-05-18T01:05:07.425Z,23.05
2023-05-18T01:06:07.436Z,23.05
2023-05-18T01:07:07.468Z,23.05
2023-05-18T01:08:07.453Z,23.05
2023-05-18T01:09:07.522Z,23.05
2023-05-18T01:10:07.543Z,23.05
2023-05-18T01:11:07.593Z,23.06
2023-05-18T01:12:07.558Z,23.05
2023-05-18T01:13:07.594Z,23.05
2023-05-18T01:14:07.639Z,23.05
2023-05-18T01:15:07.653Z,23.05
2023-05-18T01:16:07.698Z,23.05
2023-05-18T01:17:07.721Z,23.05
2023-05-18T01:18:07.716Z,23.05
2023-05-18T01:19:07.773Z,23.05
2023-05-18T01:20:07.728Z,23.04
2023-05-18T01:21:07.753Z,23.04
2023-05-18T01:22:07.772Z,23.05
2023-05-18T01:23:07.784Z,23.05
2023-05-18T01:24:07.804Z,23.04
2023-05-18T01:25:07.808Z,23.03
2023-05-18T01:26:07.833Z,23.04
2023-05-18T01:27:07.890Z,23.03
2023-05-18T01:28:07.871Z,23.03
2023-05-18T01:29:07.919Z,23.03
2023-05-18T01:30:07.970Z,23.03
2023-05-18T01:31:07.951Z,23.03
2023-05-18T01:32:07.988Z,23.03
2023-05-18T01:33:08.049Z,23.03
2023-05-18T01:34:08.000Z,23.03
2023-05-18T01:35:08.022Z,23.02
2023-05-18T01:36:08.070Z,23.02
2023-05-18T01:37:08.096Z,23.02
2023-05-18T01:38:08.085Z,23.03
2023-05-18T01:39:08.106Z,23.03
2023-05-18T01:40:08.116Z,23.02
2023-05-18T01:41:08.168Z,23.02
2023-05-18T01:42:08.221Z,23.02
2023-05-18T01:43:08.326Z,23.01
2023-05-18T01:44:08.242Z,23.02
2023-05-18T01:45:08.238Z,23.02
2023-05-18T01:46:08.316Z,23.01
2023-05-18T01:47:08.283Z,23.01
2023-05-18T01:48:08.347Z,23.01
2023-05-18T01:49:08.348Z,23.01
2023-05-18T01:50:08.357Z,23.00
2023-05-18T01:51:08.408Z,23.00
2023-05-18T01:52:08.441Z,23.00
2023-05-18T01:53:08.449Z,22.98
2023-05-18T01:54:08.492Z,22.98
2023-05-18T01:55:08.518Z,22.97
2023-05-18T01:56:08.564Z,22.97
2023-05-18T01:57:09.423Z,22.97
2023-05-18T01:58:08.608Z,22.97
2023-05-18T01:59:08.617Z,22.98
2023-05-18T02:00:08.639Z,22.97
2023-05-18T02:01:08.667Z,22.98
2023-05-18T02:02:08.696Z,22.98
2023-05-18T02:03:08.804Z,22.97
2023-05-18T02:04:08.844Z,22.97
2023-05-18T02:05:08.741Z,22.97
2023-05-18T02:06:08.772Z,22.98
2023-05-18T02:07:08.828Z,22.97
2023-05-18T02:08:08.842Z,22.97
2023-05-18T02:09:08.851Z,22.97
2023-05-18T02:10:08.899Z,22.97
2023-05-18T02:11:08.877Z,22.97
2023-05-18T02:12:08.942Z,22.98
2023-05-18T02:13:08.940Z,22.98
2023-05-18T02:14:08.949Z,22.98
2023-05-18T02:15:08.975Z,22.98
2023-05-18T02:16:09.034Z,22.98
2023-05-18T02:17:09.032Z,22.98
2023-05-18T02:18:09.128Z,22.99
2023-05-18T02:19:09.167Z,22.99
2023-05-18T02:20:09.124Z,22.98
2023-05-18T02:21:09.172Z,22.98
2023-05-18T02:22:09.183Z,22.99
2023-05-18T02:23:09.192Z,22.99
2023-05-18T02:24:09.202Z,22.97
2023-05-18T02:25:09.278Z,22.98
2023-05-18T02:26:09.294Z,22.99
2023-05-18T02:27:09.317Z,22.98
2023-05-18T02:28:09.339Z,22.99
2023-05-18T02:29:09.380Z,22.99
2023-05-18T02:30:09.411Z,22.99
2023-05-18T02:31:09.431Z,22.98
2023-05-18T02:32:09.573Z,22.98
2023-05-18T02:33:09.525Z,22.98
2023-05-18T02:34:09.482Z,22.97
2023-05-18T02:35:09.530Z,22.97
2023-05-18T02:36:09.566Z,22.96
2023-05-18T02:37:09.584Z,22.96
2023-05-18T02:38:09.616Z,22.96
2023-05-18T02:39:09.648Z,22.97
2023-05-18T02:40:09.742Z,22.96
2023-05-18T02:41:09.710Z,22.96
2023-05-18T02:42:09.761Z,22.97
2023-05-18T02:43:09.781Z,22.97
2023-05-18T02:44:09.826Z,22.96
2023-05-18T02:45:09.844Z,22.97
2023-05-18T02:46:09.887Z,22.96
2023-05-18T02:47:09.876Z,22.97
2023-05-18T02:48:09.961Z,22.97
2023-05-18T02:49:09.938Z,22.98
2023-05-18T02:50:09.985Z,22.98
2023-05-18T02:51:09.982Z,23.00
2023-05-18T02:52:10.019Z,23.02
2023-05-18T02:53:09.990Z,23.03
2023-05-18T02:54:10.038Z,23.04
2023-05-18T02:55:10.055Z,23.05
2023-05-18T02:56:10.062Z,23.07
2023-05-18T02:57:10.076Z,23.09
2023-05-18T02:58:10.100Z,23.10
2023-05-18T02:59:10.110Z,23.12
2023-05-18T03:00:10.176Z,23.14
2023-05-18T03:01:10.170Z,23.17
2023-05-18T03:02:10.200Z,23.18
2023-05-18T03:03:10.318Z,23.20
2023-05-18T03:04:10.244Z,23.23
2023-05-18T03:05:10.289Z,23.25
2023-05-18T03:06:10.322Z,23.27
2023-05-18T03:07:10.383Z,23.29
2023-05-18T03:08:10.432Z,23.30
2023-05-18T03:09:10.539Z,23.31
2023-05-18T03:10:10.572Z,23.32
2023-05-18T03:11:10.657Z,23.33
2023-05-18T03:12:10.738Z,23.34
2023-05-18T03:13:10.832Z,23.35
2023-05-18T03:14:10.888Z,23.36
2023-05-18T03:15:11.028Z,23.38
2023-05-18T03:16:11.140Z,23.38
2023-05-18T03:17:11.114Z,23.40
2023-05-18T03:18:11.237Z,23.41
2023-05-18T03:19:11.294Z,23.43
2023-05-18T03:20:11.331Z,23.44
2023-05-18T03:21:11.420Z,23.46
2023-05-18T03:22:11.496Z,23.47
2023-05-18T03:23:11.555Z,23.49
2023-05-18T03:24:11.622Z,23.50
2023-05-18T03:25:11.733Z,23.52
2023-05-18T03:26:11.876Z,23.53
2023-05-18T03:27:11.859Z,23.54
2023-05-18T03:28:11.900Z,23.55
2023-05-18T03:29:11.963Z,23.57
2023-05-18T03:30:12.014Z,23.57
2023-05-18T03:31:12.164Z,23.57
2023-05-18T03:32:12.189Z,23.59
2023-05-18T03:33:12.355Z,23.60
2023-05-18T03:34:12.296Z,23.60
2023-05-18T03:35:12.442Z,23.61
2023-05-18T03:36:12.439Z,23.63
2023-05-18T03:37:12.505Z,23.63
2023-05-18T03:38:12.525Z,23.64
2023-05-18T03:39:12.630Z,23.65
2023-05-18T03:40:12.699Z,23.66
2023-05-18T03:41:12.716Z,23.67
2023-05-18T03:42:12.759Z,23.66
2023-05-18T03:43:12.845Z,23.66
2023-05-18T03:44:12.899Z,23.67
2023-05-18T03:45:12.992Z,23.68
2023-05-18T03:46:13.092Z,23.68
2023-05-18T03:47:13.098Z,23.69
2023-05-18T03:48:13.179Z,23.70
2023-05-18T03:49:13.228Z,23.71
2023-05-18T03:50:13.296Z,23.71
2023-05-18T03:51:13.427Z,23.72
2023-05-18T03:52:13.410Z,23.73
2023-05-18T03:53:13.492Z,23.73
2023-05-18T03:54:13.564Z,23.75
2023-05-18T03:55:13.621Z,23.75
2023-05-18T03:56:13.682Z,23.76
2023-05-18T03:57:13.740Z,23.77
2023-05-18T03:58:13.798Z,23.78
2023-05-18T03:59:13.829Z,23.78
2023-05-18T04:00:13.884Z,23.79
2023-05-18T04:01:13.946Z,23.80
2023-05-18T04:02:14.054Z,23.80
2023-05-18T04:03:14.160Z,23.80
2023-05-18T04:04:14.120Z,23.81
2023-05-18T04:05:14.192Z,23.81
2023-05-18T04:06:14.206Z,23.81
2023-05-18T04:07:15.679Z,23.82
2023-05-18T04:08:14.415Z,23.83
2023-05-18T04:09:14.382Z,23.83
2023-05-18T04:10:14.443Z,23.83
2023-05-18T04:11:14.482Z,23.84
2023-05-18T04:12:14.516Z,23.84
2023-05-18T04:13:14.579Z,23.84
2023-05-18T04:14:14.622Z,23.85
2023-05-18T04:15:14.859Z,23.84
2023-05-18T04:16:14.747Z,23.85
2023-05-18T04:17:14.776Z,23.85
2023-05-18T04:18:14.860Z,23.86
2023-05-18T04:19:14.905Z,23.87
2023-05-18T04:20:15.081Z,23.87
2023-05-18T04:21:14.999Z,23.87
2023-05-18T04:22:15.071Z,23.88
2023-05-18T04:23:15.124Z,23.88
2023-05-18T04:24:15.199Z,23.88
2023-05-18T04:25:15.289Z,23.89
2023-05-18T04:26:15.283Z,23.90
2023-05-18T04:27:15.386Z,23.90
2023-05-18T04:28:15.378Z,23.90
2023-05-18T04:29:15.436Z,23.90
2023-05-18T04:30:15.497Z,23.91
2023-05-18T04:31:15.565Z,23.91
2023-05-18T04:32:15.642Z,23.92
2023-05-18T04:33:15.698Z,23.91
2023-05-18T04:34:15.722Z,23.92
2023-05-18T04:35:15.774Z,23.92
2023-05-18T04:36:15.794Z,23.92
2023-05-18T04:37:15.878Z,23.92
2023-05-18T04:38:15.906Z,23.92
2023-05-18T04:39:15.979Z,23.93
2023-05-18T04:40:16.047Z,23.92
2023-05-18T04:41:16.078Z,23.92
2023-05-18T04:42:16.123Z,23.92
2023-05-18T04:43:16.195Z,23.91
2023-05-18T04:44:16.244Z,23.91
2023-05-18T04:45:16.296Z,23.90
2023-05-18T04:46:16.390Z,23.90
2023-05-18T04:47:16.404Z,23.90
2023-05-18T04:48:16.442Z,23.90
2023-05-18T04:49:16.552Z,23.90
2023-05-18T04:50:16.598Z,23.91
2023-05-18T04:51:16.627Z,23.91
2023-05-18T04:52:16.697Z,23.90
2023-05-18T04:53:16.772Z,23.91
2023-05-18T04:54:16.801Z,23.91
2023-05-18T04:55:16.879Z,23.91
2023-05-18T04:56:16.916Z,23.91
2023-05-18T04:57:16.996Z,23.91
2023-05-18T04:58:17.045Z,23.92
2023-05-18T04:59:17.086Z,23.91
2023-05-18T05:00:17.174Z,23.92
2023-05-18T05:01:24.259Z,23.92
2023-05-18T05:02:17.252Z,23.91
2023-05-18T05:03:17.302Z,23.91
2023-05-18T05:04:17.213Z,23.91
2023-05-18T05:05:17.234Z,23.92
2023-05-18T05:06:17.239Z,23.92
2023-05-18T05:07:17.244Z,23.91
2023-05-18T05:08:17.299Z,23.91
2023-05-18T05:09:17.262Z,23.92
2023-05-18T05:10:17.264Z,23.91
2023-05-18T05:11:17.260Z,23.91
2023-05-18T05:12:17.280Z,23.90
2023-05-18T05:13:17.308Z,23.91
2023-05-18T05:14:17.304Z,23.90
2023-05-18T05:15:17.344Z,23.90
2023-05-18T05:16:17.347Z,23.89
2023-05-18T05:17:17.302Z,23.89
2023-05-18T05:18:17.336Z,23.87
2023-05-18T05:19:17.402Z,23.87
2023-05-18T05:20:17.391Z,23.88
2023-05-18T05:21:17.389Z,23.87
2023-05-18T05:22:17.386Z,23.87
2023-05-18T05:23:17.433Z,23.87
2023-05-18T05:24:17.392Z,23.87
2023-05-18T05:25:17.430Z,23.87
2023-05-18T05:26:17.443Z,23.87
2023-05-18T05:27:17.437Z,23.86
2023-05-18T05:28:17.446Z,23.87
2023-05-18T05:29:17.467Z,23.87
2023-05-18T05:30:17.528Z,23.86
2023-05-18T05:31:17.626Z,23.86
2023-05-18T05:32:17.642Z,23.86
2023-05-18T05:33:17.699Z,23.85
2023-05-18T05:34:17.776Z,23.85
2023-05-18T05:35:17.809Z,23.85
2023-05-18T05:36:17.881Z,23.85
2023-05-18T05:37:17.942Z,23.85
2023-05-18T05:38:18.009Z,23.84
2023-05-18T05:39:18.099Z,23.84
2023-05-18T05:40:18.162Z,23.85
2023-05-18T05:41:18.210Z,23.84
2023-05-18T05:42:18.269Z,23.84
2023-05-18T05:43:18.313Z,23.83
2023-05-18T05:44:18.403Z,23.82
2023-05-18T05:45:25.586Z,23.81
2023-05-18T05:46:18.527Z,23.80
2023-05-18T05:47:18.476Z,23.80
2023-05-18T05:48:18.506Z,23.81
2023-05-18T05:49:18.515Z,23.80
2023-05-18T05:50:18.539Z,23.78
2023-05-18T05:51:18.529Z,23.78
2023-05-18T05:52:18.505Z,23.79
2023-05-18T05:53:18.543Z,23.79
2023-05-18T05:54:18.552Z,23.77
2023-05-18T05:55:18.553Z,23.77
2023-05-18T05:56:18.554Z,23.78
2023-05-18T05:57:18.596Z,23.77
2023-05-18T05:58:18.591Z,23.78
2023-05-18T05:59:18.582Z,23.78
2023-05-18T06:00:18.607Z,23.78
2023-05-18T06:01:18.613Z,23.77
2023-05-18T06:02:18.675Z,23.78
2023-05-18T06:03:18.703Z,23.78
2023-05-18T06:04:18.709Z,23.78
2023-05-18T06:05:18.622Z,23.78
2023-05-18T06:06:18.597Z,23.78
2023-05-18T06:07:18.606Z,23.77
2023-05-18T06:08:18.609Z,23.75
2023-05-18T06:09:18.692Z,23.76
2023-05-18T06:10:18.756Z,23.74
2023-05-18T06:11:18.787Z,23.73
2023-05-18T06:12:18.833Z,23.71
2023-05-18T06:13:18.917Z,23.70
2023-05-18T06:14:18.986Z,23.70
2023-05-18T06:15:19.133Z,23.68
2023-05-18T06:16:19.155Z,23.67
2023-05-18T06:17:19.176Z,23.66
2023-05-18T06:18:19.300Z,23.65
2023-05-18T06:19:19.361Z,23.66
2023-05-18T06:20:19.375Z,23.66
2023-05-18T06:21:19.484Z,23.66
2023-05-18T06:22:19.509Z,23.66
2023-05-18T06:23:19.609Z,23.67
2023-05-18T06:24:19.688Z,23.69
2023-05-18T06:25:19.772Z,23.69
2023-05-18T06:26:19.810Z,23.70
2023-05-18T06:27:19.905Z,23.71
2023-05-18T06:28:19.947Z,23.70
2023-05-18T06:29:20.025Z,23.69
2023-05-18T06:30:20.110Z,23.70
2023-05-18T06:31:20.192Z,23.69
2023-05-18T06:32:20.418Z,23.70
2023-05-18T06:33:20.307Z,23.70
2023-05-18T06:34:20.404Z,23.70
2023-05-18T06:35:20.475Z,23.71
2023-05-18T06:36:20.525Z,23.71
2023-05-18T06:37:20.556Z,23.71
2023-05-18T06:38:20.655Z,23.72
2023-05-18T06:39:20.747Z,23.72
2023-05-18T06:40:20.771Z,23.72
2023-05-18T06:41:20.850Z,23.72
2023-05-18T06:42:20.900Z,23.72
2023-05-18T06:43:20.965Z,23.72
2023-05-18T06:44:21.003Z,23.74
2023-05-18T06:45:21.103Z,23.69
2023-05-18T06:46:21.284Z,23.68
2023-05-18T06:47:21.266Z,23.69
2023-05-18T06:48:21.323Z,23.69
2023-05-18T06:49:21.357Z,23.69
2023-05-18T06:50:21.402Z,23.69
2023-05-18T06:51:21.482Z,23.70
2023-05-18T06:52:21.526Z,23.69
2023-05-18T06:53:21.573Z,23.70
2023-05-18T06:54:21.645Z,23.71
2023-05-18T06:55:21.743Z,23.70
2023-05-18T06:56:21.802Z,23.68
2023-05-18T06:57:21.829Z,23.65
2023-05-18T06:58:21.945Z,23.65
2023-05-18T06:59:21.978Z,23.65
2023-05-18T07:00:22.032Z,23.65
2023-05-18T07:01:22.201Z,23.65
2023-05-18T07:02:22.205Z,23.65
2023-05-18T07:03:22.293Z,23.66
2023-05-18T07:04:22.347Z,23.61
2023-05-18T07:05:22.422Z,23.60
2023-05-18T07:06:22.511Z,23.54
2023-05-18T07:07:22.568Z,23.50
2023-05-18T07:08:22.615Z,23.49
2023-05-18T07:09:22.714Z,23.47
2023-05-18T07:10:22.814Z,23.47
2023-05-18T07:11:22.875Z,23.46
2023-05-18T07:12:22.941Z,23.48
2023-05-18T07:13:23.098Z,23.49
2023-05-18T07:14:23.101Z,23.50
2023-05-18T07:15:23.177Z,23.53
2023-05-18T07:16:23.359Z,23.54
2023-05-18T07:17:23.336Z,23.55
2023-05-18T07:18:23.406Z,23.56
2023-05-18T07:19:23.664Z,23.58
2023-05-18T07:20:25.880Z,23.60
2023-05-18T07:21:23.562Z,23.61
2023-05-18T07:22:23.570Z,23.64
2023-05-18T07:23:23.600Z,23.65
2023-05-18T07:24:23.635Z,23.67
2023-05-18T07:25:23.654Z,23.69
2023-05-18T07:26:23.650Z,23.71
2023-05-18T07:27:23.623Z,23.72
2023-05-18T07:28:23.655Z,23.73
2023-05-18T07:29:23.629Z,23.74
2023-05-18T07:30:23.670Z,23.75
2023-05-18T07:31:23.730Z,23.75
2023-05-18T07:32:23.652Z,23.77
2023-05-18T07:33:23.674Z,23.78
2023-05-18T07:34:23.682Z,23.78
2023-05-18T07:35:23.703Z,23.79
2023-05-18T07:36:23.690Z,23.79
2023-05-18T07:37:23.712Z,23.80
2023-05-18T07:38:23.701Z,23.81
2023-05-18T07:39:23.728Z,23.81
2023-05-18T07:40:23.708Z,23.82
2023-05-18T07:41:23.779Z,23.82
2023-05-18T07:42:23.733Z,23.82
2023-05-18T07:43:23.757Z,23.83
2023-05-18T07:44:23.747Z,23.84
2023-05-18T07:45:23.736Z,23.84
2023-05-18T07:46:23.842Z,23.83
2023-05-18T07:47:23.811Z,23.83
2023-05-18T07:48:23.775Z,23.81
2023-05-18T07:49:23.751Z,23.80
2023-05-18T07:50:23.772Z,23.77
2023-05-18T07:51:23.898Z,23.74
2023-05-18T07:52:23.815Z,23.74
2023-05-18T07:53:23.819Z,23.74
2023-05-18T07:54:23.808Z,23.74
2023-05-18T07:55:23.779Z,23.73
2023-05-18T07:56:23.835Z,23.73
2023-05-18T07:57:23.809Z,23.71
2023-05-18T07:58:23.827Z,23.71
2023-05-18T07:59:23.853Z,23.71
2023-05-18T08:00:23.851Z,23.71
2023-05-18T08:01:23.879Z,23.71
2023-05-18T08:02:23.999Z,23.71
2023-05-18T08:03:24.009Z,23.72
2023-05-18T08:04:24.107Z,23.74
2023-05-18T08:05:24.081Z,23.76
2023-05-18T08:06:24.160Z,23.78
2023-05-18T08:07:24.222Z,23.77
2023-05-18T08:08:24.285Z,23.78
2023-05-18T08:09:24.331Z,23.79
2023-05-18T08:10:24.438Z,23.77
2023-05-18T08:11:24.471Z,23.73
2023-05-18T08:12:24.561Z,23.70
2023-05-18T08:13:24.640Z,23.69
2023-05-18T08:14:24.690Z,23.64
2023-05-18T08:15:24.746Z,23.64
2023-05-18T08:16:24.874Z,23.65
2023-05-18T08:17:24.912Z,23.66
2023-05-18T08:18:24.970Z,23.67
2023-05-18T08:19:25.169Z,23.67
2023-05-18T08:20:25.167Z,23.64
2023-05-18T08:21:25.183Z,23.58
2023-05-18T08:22:25.276Z,23.54
2023-05-18T08:23:25.343Z,23.53
2023-05-18T08:24:25.425Z,23.53
2023-05-18T08:25:25.520Z,23.52
2023-05-18T08:26:25.570Z,23.53
2023-05-18T08:27:25.638Z,23.55
2023-05-18T08:28:25.747Z,23.56
2023-05-18T08:29:25.773Z,23.56
2023-05-18T08:30:25.880Z,23.60
2023-05-18T08:31:25.984Z,23.59
2023-05-18T08:32:26.084Z,23.61
2023-05-18T08:33:26.098Z,23.63
2023-05-18T08:34:26.183Z,23.63
2023-05-18T08:35:26.247Z,23.63
2023-05-18T08:36:26.325Z,23.65
2023-05-18T08:37:26.376Z,23.65
2023-05-18T08:38:26.458Z,23.65
2023-05-18T08:39:26.513Z,23.64
2023-05-18T08:40:26.591Z,23.65
2023-05-18T08:41:26.628Z,23.66
2023-05-18T08:42:34.414Z,23.64
2023-05-18T08:43:28.890Z,23.65
2023-05-18T08:44:26.715Z,23.67
2023-05-18T08:45:26.720Z,23.68
2023-05-18T08:46:26.719Z,23.68
2023-05-18T08:47:26.765Z,23.68
2023-05-18T08:48:28.363Z,23.65
2023-05-18T08:49:26.757Z,23.60
2023-05-18T08:50:26.760Z,23.56
2023-05-18T08:51:26.773Z,23.54
2023-05-18T08:52:26.794Z,23.49
2023-05-18T08:53:26.847Z,23.43
2023-05-18T08:54:26.827Z,23.42
2023-05-18T08:55:26.853Z,23.45
2023-05-18T08:56:26.890Z,23.51
2023-05-18T08:57:26.872Z,23.51
2023-05-18T08:58:26.881Z,23.54
2023-05-18T08:59:26.881Z,23.53
2023-05-18T09:00:26.988Z,23.52
2023-05-18T09:01:27.047Z,23.53
2023-05-18T09:02:27.103Z,23.53
2023-05-18T09:03:27.138Z,23.50
2023-05-18T09:04:27.264Z,23.48
2023-05-18T09:05:27.304Z,23.48
2023-05-18T09:06:27.296Z,23.46
2023-05-18T09:07:27.333Z,23.44
2023-05-18T09:08:27.393Z,23.46
2023-05-18T09:09:27.472Z,23.46
2023-05-18T09:10:27.530Z,23.48
2023-05-18T09:11:27.576Z,23.46
2023-05-18T09:12:27.637Z,23.45
2023-05-18T09:13:27.771Z,23.44
2023-05-18T09:14:27.801Z,23.45
2023-05-18T09:15:27.923Z,23.45
2023-05-18T09:16:28.071Z,23.45
2023-05-18T09:17:28.136Z,23.46
2023-05-18T09:18:28.561Z,23.47
2023-05-18T09:19:28.227Z,23.47
2023-05-18T09:20:28.318Z,23.48
2023-05-18T09:21:28.356Z,23.50
2023-05-18T09:22:28.443Z,23.50
2023-05-18T09:23:28.479Z,23.52
2023-05-18T09:24:28.595Z,23.53
2023-05-18T09:25:28.836Z,23.54
2023-05-18T09:26:28.738Z,23.55
2023-05-18T09:27:28.811Z,23.56
2023-05-18T09:28:28.847Z,23.55
2023-05-18T09:29:29.850Z,23.56
2023-05-18T09:30:28.993Z,23.56
2023-05-18T09:31:29.120Z,23.53
2023-05-18T09:32:29.211Z,23.51
2023-05-18T09:33:29.340Z,23.50
2023-05-18T09:34:29.301Z,23.47
2023-05-18T09:35:29.448Z,23.41
2023-05-18T09:36:29.336Z,23.38
2023-05-18T09:37:29.399Z,23.31
2023-05-18T09:38:29.386Z,23.24
2023-05-18T09:39:29.405Z,23.20
2023-05-18T09:40:29.450Z,23.18
2023-05-18T09:41:29.538Z,23.15
2023-05-18T09:42:29.525Z,23.15
2023-05-18T09:43:29.525Z,23.17
2023-05-18T09:44:29.559Z,23.19
2023-05-18T09:45:29.764Z,23.22
2023-05-18T09:46:29.704Z,23.24
2023-05-18T09:47:29.700Z,23.25
2023-05-18T09:48:29.730Z,23.26
2023-05-18T09:49:29.754Z,23.29
2023-05-18T09:50:29.864Z,23.31
2023-05-18T09:51:29.932Z,23.34
2023-05-18T09:52:29.984Z,23.37
2023-05-18T09:53:30.044Z,23.40
2023-05-18T09:54:30.141Z,23.41
2023-05-18T09:55:30.517Z,23.44
2023-05-18T09:56:30.282Z,23.45
2023-05-18T09:57:30.372Z,23.47
2023-05-18T09:58:30.448Z,23.48
2023-05-18T09:59:30.503Z,23.47
2023-05-18T10:00:30.589Z,23.46
2023-05-18T10:01:30.689Z,23.44
2023-05-18T10:02:30.765Z,23.45
2023-05-18T10:03:30.810Z,23.47
2023-05-18T10:04:30.964Z,23.48
2023-05-18T10:05:33.207Z,23.48
2023-05-18T10:06:30.990Z,23.47
2023-05-18T10:07:30.976Z,23.45
2023-05-18T10:08:31.016Z,23.45
2023-05-18T10:09:31.028Z,23.46
2023-05-18T10:10:31.215Z,23.48
2023-05-18T10:11:31.073Z,23.48
2023-05-18T10:12:31.068Z,23.48
2023-05-18T10:13:31.048Z,23.47
2023-05-18T10:14:31.487Z,23.45
2023-05-18T10:15:31.252Z,23.44
2023-05-18T10:16:31.091Z,23.45
2023-05-18T10:17:31.165Z,23.43
2023-05-18T10:18:31.139Z,23.43
2023-05-18T10:19:31.099Z,23.46
2023-05-18T10:20:31.285Z,23.47
2023-05-18T10:21:31.220Z,23.48
2023-05-18T10:22:31.097Z,23.47
2023-05-18T10:23:31.769Z,23.48
2023-05-18T10:24:31.111Z,23.49
2023-05-18T10:25:31.120Z,23.51
2023-05-18T10:26:31.153Z,23.52
2023-05-18T10:27:31.145Z,23.54
2023-05-18T10:28:31.174Z,23.56
2023-05-18T10:29:31.146Z,23.57
2023-05-18T10:30:31.409Z,23.59
2023-05-18T10:31:31.366Z,23.61
2023-05-18T10:32:31.380Z,23.62
2023-05-18T10:33:31.466Z,23.61
2023-05-18T10:34:31.443Z,23.63
2023-05-18T10:35:31.520Z,23.65
2023-05-18T10:36:31.587Z,23.65
2023-05-18T10:37:31.709Z,23.67
2023-05-18T10:38:31.736Z,23.68
2023-05-18T10:39:31.805Z,23.69
2023-05-18T10:40:31.997Z,23.68
2023-05-18T10:41:31.931Z,23.68
2023-05-18T10:42:31.999Z,23.65
2023-05-18T10:43:32.090Z,23.64
2023-05-18T10:44:32.103Z,23.65
2023-05-18T10:45:32.163Z,23.63
2023-05-18T10:46:32.321Z,23.60
2023-05-18T10:47:32.477Z,23.57
2023-05-18T10:48:32.405Z,23.57
2023-05-18T10:49:32.450Z,23.57
2023-05-18T10:50:32.795Z,23.57
2023-05-18T10:51:32.588Z,23.59
2023-05-18T10:52:32.644Z,23.58
2023-05-18T10:53:32.718Z,23.57
2023-05-18T10:54:32.798Z,23.58
2023-05-18T10:55:32.880Z,23.57
2023-05-18T10:56:32.918Z,23.58
2023-05-18T10:57:32.984Z,23.59
2023-05-18T10:58:33.095Z,23.59
2023-05-18T10:59:33.146Z,23.60
2023-05-18T11:00:33.322Z,23.62
2023-05-18T11:01:33.368Z,23.62
2023-05-18T11:02:33.483Z,23.61
2023-05-18T11:03:33.497Z,23.60
2023-05-18T11:04:33.545Z,23.61
2023-05-18T11:05:33.662Z,23.61
2023-05-18T11:06:33.691Z,23.59
2023-05-18T11:07:33.810Z,23.57
2023-05-18T11:08:33.815Z,23.54
2023-05-18T11:09:33.895Z,23.52
2023-05-18T11:10:33.939Z,23.50
2023-05-18T11:11:34.047Z,23.48
2023-05-18T11:12:34.133Z,23.49
2023-05-18T11:13:34.207Z,23.49
2023-05-18T11:14:34.263Z,23.50
2023-05-18T11:15:34.369Z,23.52
2023-05-18T11:16:34.538Z,23.53
2023-05-18T11:17:34.583Z,23.55
2023-05-18T11:18:34.614Z,23.56
2023-05-18T11:19:34.713Z,23.58
2023-05-18T11:20:34.757Z,23.60
2023-05-18T11:21:34.852Z,23.61
2023-05-18T11:22:34.928Z,23.59
2023-05-18T11:23:35.002Z,23.60
2023-05-18T11:24:35.101Z,23.60
2023-05-18T11:25:35.197Z,23.61
2023-05-18T11:26:35.268Z,23.58
2023-05-18T11:27:35.343Z,23.56
2023-05-18T11:28:35.398Z,23.56
2023-05-18T11:29:35.515Z,23.56
2023-05-18T11:30:35.847Z,23.56
2023-05-18T11:31:35.663Z,23.54
2023-05-18T11:32:35.928Z,23.53
2023-05-18T11:33:35.885Z,23.55
2023-05-18T11:34:38.336Z,23.54
2023-05-18T11:35:35.990Z,23.55
2023-05-18T11:36:35.919Z,23.55
2023-05-18T11:37:35.945Z,23.55
2023-05-18T11:38:35.920Z,23.57
2023-05-18T11:39:37.719Z,23.58
2023-05-18T11:40:36.993Z,23.57
2023-05-18T11:41:35.976Z,23.56
2023-05-18T11:42:35.996Z,23.55
2023-05-18T11:43:35.997Z,23.57
2023-05-18T11:44:36.039Z,23.59
2023-05-18T11:45:36.039Z,23.56
2023-05-18T11:46:36.058Z,23.54
2023-05-18T11:47:36.079Z,23.52
2023-05-18T11:48:36.155Z,23.51
2023-05-18T11:49:36.108Z,23.51
2023-05-18T11:50:36.189Z,23.49
2023-05-18T11:51:36.271Z,23.46
2023-05-18T11:52:36.303Z,23.42
2023-05-18T11:53:36.406Z,23.42
2023-05-18T11:54:36.502Z,23.42
2023-05-18T11:55:36.590Z,23.42
2023-05-18T11:56:36.673Z,23.41
2023-05-18T11:57:36.671Z,23.39
2023-05-18T11:58:36.742Z,23.38
2023-05-18T11:59:36.768Z,23.36
2023-05-18T12:00:36.857Z,23.38
2023-05-18T12:01:36.917Z,23.40
2023-05-18T12:02:37.166Z,23.42
2023-05-18T12:03:37.185Z,23.43
2023-05-18T12:04:37.235Z,23.41
2023-05-18T12:05:37.270Z,23.41
2023-05-18T12:06:37.350Z,23.39
2023-05-18T12:07:37.527Z,23.37
2023-05-18T12:08:37.494Z,23.36
2023-05-18T12:09:37.503Z,23.36
2023-05-18T12:10:37.582Z,23.35
2023-05-18T12:11:37.652Z,23.37
2023-05-18T12:12:37.724Z,23.38
2023-05-18T12:13:37.777Z,23.39
2023-05-18T12:14:37.890Z,23.41
2023-05-18T12:15:37.948Z,23.43
2023-05-18T12:16:38.052Z,23.46
2023-05-18T12:17:38.148Z,23.48
2023-05-18T12:18:38.217Z,23.49
2023-05-18T12:19:38.252Z,23.52
2023-05-18T12:20:38.336Z,23.51
2023-05-18T12:21:38.413Z,23.47
2023-05-18T12:22:38.475Z,23.44
2023-05-18T12:23:38.605Z,23.43
2023-05-18T12:24:38.657Z,23.42
2023-05-18T12:25:38.771Z,23.42
2023-05-18T12:26:38.855Z,23.43
2023-05-18T12:27:38.923Z,23.44
2023-05-18T12:28:39.000Z,23.44
2023-05-18T12:29:39.075Z,23.46
2023-05-18T12:30:39.189Z,23.48
2023-05-18T12:31:39.283Z,23.48
2023-05-18T12:32:39.334Z,23.50
2023-05-18T12:33:39.393Z,23.53
2023-05-18T12:34:39.490Z,23.53
2023-05-18T12:35:39.558Z,23.54
2023-05-18T12:36:39.633Z,23.56
2023-05-18T12:37:45.077Z,23.55
2023-05-18T12:38:40.701Z,23.56
2023-05-18T12:39:39.703Z,23.56
2023-05-18T12:40:39.712Z,23.58
2023-05-18T12:41:39.691Z,23.59
2023-05-18T12:42:39.707Z,23.61
2023-05-18T12:43:39.709Z,23.62
2023-05-18T12:44:39.725Z,23.63
2023-05-18T12:45:39.760Z,23.63
2023-05-18T12:46:39.805Z,23.61
2023-05-18T12:47:39.802Z,23.62
2023-05-18T12:48:39.874Z,23.63
2023-05-18T12:49:39.947Z,23.62
2023-05-18T12:50:40.030Z,23.64
2023-05-18T12:51:40.086Z,23.66
2023-05-18T12:52:40.110Z,23.65